Court-Saint-Etienne, Belgium
Current Conditions -  °F | °C
As of 7:25 AM on Wednesday 26 Nov 2014 (Local Time) from EBBE Reporting Station
Broken Clouds Broken Clouds  
Wind Chill:   Ceiling: 8000
Heat Index:   Visibility: 4mi
Dew Point:   Wind: 5mph
Humidity: 93%   Direction: 80°E
Pressure: 29.94"   Gusts: NA
Location:  50.63°N, 4.57°E
Report Text: EBBE 260625Z 08004KT 7000 BKN080 BKN100 04/03 Q1014 WHT WHT TEMPO GRN
Loading
Personal Weather Stations






























Interactive Weather Map New forecast layout! Learn more

10-Day Weather Forecast

Advertisements
Track Severe Weather on mobile